sensor_id;sensor_type;location;lat;lon;timestamp;temperature;humidity
18073;DHT22;9161;47.348;9.648;2023-06-22T00:03:08;20.70;99.90
18073;DHT22;9161;47.348;9.648;2023-06-22T00:08:12;20.50;99.90
18073;DHT22;9161;47.348;9.648;2023-06-22T00:13:16;20.30;99.90
18073;DHT22;9161;47.348;9.648;2023-06-22T00:18:18;20.10;99.90
18073;DHT22;9161;47.348;9.648;2023-06-22T00:23:22;20.00;99.90
18073;DHT22;9161;47.348;9.648;2023-06-22T00:28:24;19.90;99.90
18073;DHT22;9161;47.348;9.648;2023-06-22T00:33:26;19.80;99.90
18073;DHT22;9161;47.348;9.648;2023-06-22T00:38:30;19.60;99.90
18073;DHT22;9161;47.348;9.648;2023-06-22T00:43:33;19.50;99.90
18073;DHT22;9161;47.348;9.648;2023-06-22T00:48:35;19.70;99.90
18073;DHT22;9161;47.348;9.648;2023-06-22T00:53:39;19.70;99.90
18073;DHT22;9161;47.348;9.648;2023-06-22T00:58:42;19.50;99.90
18073;DHT22;9161;47.348;9.648;2023-06-22T01:03:44;19.30;99.90
18073;DHT22;9161;47.348;9.648;2023-06-22T01:08:53;19.20;99.90
18073;DHT22;9161;47.348;9.648;2023-06-22T01:14:03;19.30;99.90
18073;DHT22;9161;47.348;9.648;2023-06-22T01:19:27;19.20;99.90
18073;DHT22;9161;47.348;9.648;2023-06-22T01:24:33;19.20;99.90
18073;DHT22;9161;47.348;9.648;2023-06-22T01:29:44;19.20;99.90
18073;DHT22;9161;47.348;9.648;2023-06-22T01:34:47;19.10;99.90
18073;DHT22;9161;47.348;9.648;2023-06-22T01:39:50;19.10;99.90
18073;DHT22;9161;47.348;9.648;2023-06-22T01:44:54;19.10;99.90
18073;DHT22;9161;47.348;9.648;2023-06-22T01:49:59;19.20;99.90
18073;DHT22;9161;47.348;9.648;2023-06-22T01:55:01;18.90;99.90
18073;DHT22;9161;47.348;9.648;2023-06-22T02:00:12;19.00;99.90
18073;DHT22;9161;47.348;9.648;2023-06-22T02:05:17;18.90;99.90
18073;DHT22;9161;47.348;9.648;2023-06-22T02:10:21;18.90;99.90
18073;DHT22;9161;47.348;9.648;2023-06-22T02:15:26;18.90;99.90
18073;DHT22;9161;47.348;9.648;2023-06-22T02:20:28;18.90;99.90
18073;DHT22;9161;47.348;9.648;2023-06-22T02:25:31;19.00;99.90
18073;DHT22;9161;47.348;9.648;2023-06-22T02:30:34;19.10;99.90
18073;DHT22;9161;47.348;9.648;2023-06-22T02:35:36;19.30;99.90
18073;DHT22;9161;47.348;9.648;2023-06-22T02:40:40;19.50;99.90
18073;DHT22;9161;47.348;9.648;2023-06-22T02:45:44;19.70;99.90
18073;DHT22;9161;47.348;9.648;2023-06-22T02:50:46;19.80;99.90
18073;DHT22;9161;47.348;9.648;2023-06-22T02:55:48;20.00;99.90
18073;DHT22;9161;47.348;9.648;2023-06-22T03:00:51;20.10;99.90
18073;DHT22;9161;47.348;9.648;2023-06-22T03:05:53;20.20;99.90
18073;DHT22;9161;47.348;9.648;2023-06-22T03:10:55;20.20;99.90
18073;DHT22;9161;47.348;9.648;2023-06-22T03:15:59;20.20;99.90
18073;DHT22;9161;47.348;9.648;2023-06-22T03:21:01;20.30;99.90
18073;DHT22;9161;47.348;9.648;2023-06-22T03:26:03;20.30;99.90
18073;DHT22;9161;47.348;9.648;2023-06-22T03:31:06;20.30;99.90
18073;DHT22;9161;47.348;9.648;2023-06-22T03:36:09;20.30;99.90
18073;DHT22;9161;47.348;9.648;2023-06-22T03:41:11;20.30;99.90
18073;DHT22;9161;47.348;9.648;2023-06-22T03:46:14;20.30;99.90
18073;DHT22;9161;47.348;9.648;2023-06-22T03:51:16;20.30;99.90
18073;DHT22;9161;47.348;9.648;2023-06-22T03:56:18;20.30;99.90
18073;DHT22;9161;47.348;9.648;2023-06-22T04:01:22;20.30;99.90
18073;DHT22;9161;47.348;9.648;2023-06-22T04:06:27;20.40;99.90
18073;DHT22;9161;47.348;9.648;2023-06-22T04:11:29;20.50;99.90
18073;DHT22;9161;47.348;9.648;2023-06-22T04:16:32;20.50;99.90
18073;DHT22;9161;47.348;9.648;2023-06-22T04:21:35;20.60;99.90
18073;DHT22;9161;47.348;9.648;2023-06-22T04:26:38;20.60;99.90
18073;DHT22;9161;47.348;9.648;2023-06-22T04:31:47;20.80;99.90
18073;DHT22;9161;47.348;9.648;2023-06-22T04:36:52;20.80;99.90
18073;DHT22;9161;47.348;9.648;2023-06-22T04:41:54;20.90;99.90
18073;DHT22;9161;47.348;9.648;2023-06-22T04:47:03;21.00;99.90
18073;DHT22;9161;47.348;9.648;2023-06-22T04:52:11;21.30;99.90
18073;DHT22;9161;47.348;9.648;2023-06-22T04:57:14;21.60;99.90
18073;DHT22;9161;47.348;9.648;2023-06-22T05:02:17;21.90;99.90
18073;DHT22;9161;47.348;9.648;2023-06-22T05:07:19;22.10;99.90
18073;DHT22;9161;47.348;9.648;2023-06-22T05:12:22;22.30;99.90
18073;DHT22;9161;47.348;9.648;2023-06-22T05:17:26;22.50;99.90
18073;DHT22;9161;47.348;9.648;2023-06-22T05:22:28;22.60;99.90
18073;DHT22;9161;47.348;9.648;2023-06-22T05:27:30;22.60;99.90
18073;DHT22;9161;47.348;9.648;2023-06-22T05:32:34;22.60;99.90
18073;DHT22;9161;47.348;9.648;2023-06-22T05:37:36;22.60;99.90
18073;DHT22;9161;47.348;9.648;2023-06-22T05:42:38;23.00;99.90
18073;DHT22;9161;47.348;9.648;2023-06-22T05:47:42;23.30;99.90
18073;DHT22;9161;47.348;9.648;2023-06-22T05:52:44;23.50;99.90
18073;DHT22;9161;47.348;9.648;2023-06-22T05:57:46;23.80;99.90
18073;DHT22;9161;47.348;9.648;2023-06-22T06:02:50;24.10;99.90
18073;DHT22;9161;47.348;9.648;2023-06-22T06:07:52;24.30;99.90
18073;DHT22;9161;47.348;9.648;2023-06-22T06:12:54;24.50;99.90
18073;DHT22;9161;47.348;9.648;2023-06-22T06:17:58;24.70;99.90
18073;DHT22;9161;47.348;9.648;2023-06-22T06:23:00;25.10;99.90
18073;DHT22;9161;47.348;9.648;2023-06-22T06:28:03;25.10;99.90
18073;DHT22;9161;47.348;9.648;2023-06-22T06:33:07;25.00;99.90
18073;DHT22;9161;47.348;9.648;2023-06-22T06:38:09;25.10;99.90
18073;DHT22;9161;47.348;9.648;2023-06-22T06:43:12;25.30;99.90
18073;DHT22;9161;47.348;9.648;2023-06-22T06:48:16;24.90;99.90
18073;DHT22;9161;47.348;9.648;2023-06-22T06:53:18;24.40;99.90
18073;DHT22;9161;47.348;9.648;2023-06-22T06:58:20;24.50;99.90
18073;DHT22;9161;47.348;9.648;2023-06-22T07:03:24;24.90;99.90
18073;DHT22;9161;47.348;9.648;2023-06-22T07:08:27;25.90;99.90
18073;DHT22;9161;47.348;9.648;2023-06-22T07:13:29;26.80;99.90
18073;DHT22;9161;47.348;9.648;2023-06-22T07:18:33;27.40;99.90
18073;DHT22;9161;47.348;9.648;2023-06-22T07:23:35;27.60;99.90
18073;DHT22;9161;47.348;9.648;2023-06-22T07:28:37;27.30;99.90
18073;DHT22;9161;47.348;9.648;2023-06-22T07:33:43;27.20;99.90
18073;DHT22;9161;47.348;9.648;2023-06-22T07:38:45;27.80;99.90
18073;DHT22;9161;47.348;9.648;2023-06-22T07:43:47;28.10;99.90
18073;DHT22;9161;47.348;9.648;2023-06-22T07:48:51;27.80;99.90
18073;DHT22;9161;47.348;9.648;2023-06-22T07:53:56;27.50;99.90
18073;DHT22;9161;47.348;9.648;2023-06-22T07:58:58;27.70;99.90
18073;DHT22;9161;47.348;9.648;2023-06-22T08:04:03;28.00;99.90
18073;DHT22;9161;47.348;9.648;2023-06-22T08:09:06;27.60;99.90
18073;DHT22;9161;47.348;9.648;2023-06-22T08:14:08;27.00;99.90
18073;DHT22;9161;47.348;9.648;2023-06-22T08:19:12;26.80;99.90
18073;DHT22;9161;47.348;9.648;2023-06-22T08:24:15;26.80;99.90
18073;DHT22;9161;47.348;9.648;2023-06-22T08:29:17;26.70;99.90
18073;DHT22;9161;47.348;9.648;2023-06-22T08:34:22;26.70;99.90
18073;DHT22;9161;47.348;9.648;2023-06-22T08:39:26;26.60;99.90
18073;DHT22;9161;47.348;9.648;2023-06-22T08:44:29;26.70;99.90
18073;DHT22;9161;47.348;9.648;2023-06-22T08:49:32;26.40;99.90
18073;DHT22;9161;47.348;9.648;2023-06-22T08:54:34;26.30;99.90
18073;DHT22;9161;47.348;9.648;2023-06-22T08:59:37;25.80;99.90
18073;DHT22;9161;47.348;9.648;2023-06-22T09:04:40;26.10;99.90
18073;DHT22;9161;47.348;9.648;2023-06-22T09:09:42;27.10;99.90
18073;DHT22;9161;47.348;9.648;2023-06-22T09:14:45;27.90;99.90
18073;DHT22;9161;47.348;9.648;2023-06-22T09:19:49;27.70;99.90
18073;DHT22;9161;47.348;9.648;2023-06-22T09:24:51;27.30;99.90
18073;DHT22;9161;47.348;9.648;2023-06-22T09:29:53;27.50;99.90
18073;DHT22;9161;47.348;9.648;2023-06-22T09:34:57;27.90;99.90
18073;DHT22;9161;47.348;9.648;2023-06-22T09:39:59;27.90;99.90
18073;DHT22;9161;47.348;9.648;2023-06-22T09:45:02;28.00;99.90
18073;DHT22;9161;47.348;9.648;2023-06-22T09:50:06;28.30;99.90
18073;DHT22;9161;47.348;9.648;2023-06-22T09:55:09;28.50;99.90
18073;DHT22;9161;47.348;9.648;2023-06-22T10:00:12;28.80;99.90
18073;DHT22;9161;47.348;9.648;2023-06-22T10:05:17;28.40;99.90
18073;DHT22;9161;47.348;9.648;2023-06-22T10:10:19;28.60;99.90
18073;DHT22;9161;47.348;9.648;2023-06-22T10:15:22;28.60;99.90
18073;DHT22;9161;47.348;9.648;2023-06-22T10:20:25;29.20;99.90
18073;DHT22;9161;47.348;9.648;2023-06-22T10:25:29;29.00;99.90
18073;DHT22;9161;47.348;9.648;2023-06-22T10:30:31;28.90;99.90
18073;DHT22;9161;47.348;9.648;2023-06-22T10:35:35;29.00;99.90
18073;DHT22;9161;47.348;9.648;2023-06-22T10:40:38;29.00;99.90
18073;DHT22;9161;47.348;9.648;2023-06-22T10:45:41;29.20;99.90
18073;DHT22;9161;47.348;9.648;2023-06-22T10:50:46;29.80;99.90
18073;DHT22;9161;47.348;9.648;2023-06-22T10:55:48;30.00;99.90
18073;DHT22;9161;47.348;9.648;2023-06-22T11:00:57;30.30;99.90
18073;DHT22;9161;47.348;9.648;2023-06-22T11:06:01;30.30;99.90
18073;DHT22;9161;47.348;9.648;2023-06-22T11:11:03;30.50;99.90
18073;DHT22;9161;47.348;9.648;2023-06-22T11:16:05;30.50;99.90
18073;DHT22;9161;47.348;9.648;2023-06-22T11:21:09;30.60;99.90
18073;DHT22;9161;47.348;9.648;2023-06-22T11:26:15;31.20;99.90
18073;DHT22;9161;47.348;9.648;2023-06-22T11:31:19;31.00;99.90
18073;DHT22;9161;47.348;9.648;2023-06-22T11:36:30;30.50;99.90
18073;DHT22;9161;47.348;9.648;2023-06-22T11:41:34;30.40;99.90
18073;DHT22;9161;47.348;9.648;2023-06-22T11:46:36;30.80;99.90
18073;DHT22;9161;47.348;9.648;2023-06-22T11:51:40;30.70;99.90
18073;DHT22;9161;47.348;9.648;2023-06-22T11:56:41;30.50;99.90
18073;DHT22;9161;47.348;9.648;2023-06-22T12:01:46;30.20;99.90
18073;DHT22;9161;47.348;9.648;2023-06-22T12:06:49;29.90;99.90
18073;DHT22;9161;47.348;9.648;2023-06-22T12:11:52;29.50;99.90
18073;DHT22;9161;47.348;9.648;2023-06-22T12:16:54;29.80;99.90
18073;DHT22;9161;47.348;9.648;2023-06-22T12:21:57;30.00;99.90
18073;DHT22;9161;47.348;9.648;2023-06-22T12:26:59;30.00;99.90
18073;DHT22;9161;47.348;9.648;2023-06-22T12:32:03;29.80;99.90
18073;DHT22;9161;47.348;9.648;2023-06-22T12:37:07;29.90;99.90
18073;DHT22;9161;47.348;9.648;2023-06-22T12:42:09;29.70;99.90
18073;DHT22;9161;47.348;9.648;2023-06-22T12:47:12;29.70;99.90
18073;DHT22;9161;47.348;9.648;2023-06-22T12:52:16;29.90;99.90
18073;DHT22;9161;47.348;9.648;2023-06-22T12:57:18;30.10;99.90
18073;DHT22;9161;47.348;9.648;2023-06-22T13:02:21;30.10;99.90
18073;DHT22;9161;47.348;9.648;2023-06-22T13:07:24;30.40;99.90
18073;DHT22;9161;47.348;9.648;2023-06-22T13:12:27;30.50;99.90
18073;DHT22;9161;47.348;9.648;2023-06-22T13:17:29;31.20;99.90
18073;DHT22;9161;47.348;9.648;2023-06-22T13:22:34;32.50;99.90
18073;DHT22;9161;47.348;9.648;2023-06-22T13:27:41;34.00;99.90
18073;DHT22;9161;47.348;9.648;2023-06-22T13:32:43;35.00;99.90
18073;DHT22;9161;47.348;9.648;2023-06-22T13:37:47;35.50;99.90
18073;DHT22;9161;47.348;9.648;2023-06-22T13:42:49;35.90;99.90
18073;DHT22;9161;47.348;9.648;2023-06-22T13:47:56;35.20;99.90
18073;DHT22;9161;47.348;9.648;2023-06-22T13:52:59;34.10;99.90
18073;DHT22;9161;47.348;9.648;2023-06-22T13:58:02;34.30;99.90
18073;DHT22;9161;47.348;9.648;2023-06-22T14:03:04;35.10;99.90
18073;DHT22;9161;47.348;9.648;2023-06-22T14:08:08;34.30;99.90
18073;DHT22;9161;47.348;9.648;2023-06-22T14:13:31;33.20;99.90
18073;DHT22;9161;47.348;9.648;2023-06-22T14:18:33;32.50;99.90
18073;DHT22;9161;47.348;9.648;2023-06-22T14:23:36;32.00;99.90
18073;DHT22;9161;47.348;9.648;2023-06-22T14:28:39;31.30;99.90
18073;DHT22;9161;47.348;9.648;2023-06-22T14:33:44;31.20;99.90
18073;DHT22;9161;47.348;9.648;2023-06-22T14:38:48;30.70;99.90
18073;DHT22;9161;47.348;9.648;2023-06-22T14:43:51;30.60;99.90
18073;DHT22;9161;47.348;9.648;2023-06-22T14:48:53;30.70;99.90
18073;DHT22;9161;47.348;9.648;2023-06-22T14:53:56;30.30;99.90
18073;DHT22;9161;47.348;9.648;2023-06-22T14:58:58;30.10;99.90
18073;DHT22;9161;47.348;9.648;2023-06-22T15:04:00;29.40;99.90
18073;DHT22;9161;47.348;9.648;2023-06-22T15:09:04;28.90;99.90
18073;DHT22;9161;47.348;9.648;2023-06-22T15:14:06;28.70;99.90
18073;DHT22;9161;47.348;9.648;2023-06-22T15:19:11;28.50;99.90
18073;DHT22;9161;47.348;9.648;2023-06-22T15:24:16;28.20;99.90
18073;DHT22;9161;47.348;9.648;2023-06-22T15:29:18;27.80;99.90
18073;DHT22;9161;47.348;9.648;2023-06-22T15:34:20;28.20;99.90
18073;DHT22;9161;47.348;9.648;2023-06-22T15:39:24;29.20;99.90
18073;DHT22;9161;47.348;9.648;2023-06-22T15:44:27;29.60;99.90
18073;DHT22;9161;47.348;9.648;2023-06-22T15:49:30;29.60;99.90
18073;DHT22;9161;47.348;9.648;2023-06-22T15:54:33;29.70;99.90
18073;DHT22;9161;47.348;9.648;2023-06-22T15:59:36;29.50;99.90
18073;DHT22;9161;47.348;9.648;2023-06-22T16:04:38;29.40;99.90
18073;DHT22;9161;47.348;9.648;2023-06-22T16:09:42;29.50;99.90
18073;DHT22;9161;47.348;9.648;2023-06-22T16:14:44;29.70;99.90
18073;DHT22;9161;47.348;9.648;2023-06-22T16:19:46;29.70;99.90
18073;DHT22;9161;47.348;9.648;2023-06-22T16:24:50;29.70;99.90
18073;DHT22;9161;47.348;9.648;2023-06-22T16:29:53;29.30;99.90
18073;DHT22;9161;47.348;9.648;2023-06-22T16:34:55;29.20;99.90
18073;DHT22;9161;47.348;9.648;2023-06-22T16:39:59;29.00;99.90
18073;DHT22;9161;47.348;9.648;2023-06-22T16:45:01;28.60;99.90
18073;DHT22;9161;47.348;9.648;2023-06-22T16:50:04;28.40;99.90
18073;DHT22;9161;47.348;9.648;2023-06-22T16:55:10;28.20;99.90
18073;DHT22;9161;47.348;9.648;2023-06-22T17:00:13;28.00;99.90
18073;DHT22;9161;47.348;9.648;2023-06-22T17:05:16;27.60;99.90
18073;DHT22;9161;47.348;9.648;2023-06-22T17:10:21;27.60;99.90
18073;DHT22;9161;47.348;9.648;2023-06-22T17:15:24;27.30;99.90
18073;DHT22;9161;47.348;9.648;2023-06-22T17:20:28;27.30;99.90
18073;DHT22;9161;47.348;9.648;2023-06-22T17:25:33;27.10;99.90
18073;DHT22;9161;47.348;9.648;2023-06-22T17:30:47;26.70;99.90
18073;DHT22;9161;47.348;9.648;2023-06-22T17:36:08;26.60;99.90
18073;DHT22;9161;47.348;9.648;2023-06-22T17:41:31;26.40;99.90
18073;DHT22;9161;47.348;9.648;2023-06-22T17:46:36;26.30;99.90
18073;DHT22;9161;47.348;9.648;2023-06-22T17:51:39;25.20;99.90
18073;DHT22;9161;47.348;9.648;2023-06-22T17:56:48;23.20;99.90
18073;DHT22;9161;47.348;9.648;2023-06-22T18:01:52;22.20;99.90
18073;DHT22;9161;47.348;9.648;2023-06-22T18:06:55;21.60;99.90
18073;DHT22;9161;47.348;9.648;2023-06-22T18:12:02;21.10;99.90
18073;DHT22;9161;47.348;9.648;2023-06-22T18:17:06;20.90;99.90
18073;DHT22;9161;47.348;9.648;2023-06-22T18:22:10;20.90;99.90
18073;DHT22;9161;47.348;9.648;2023-06-22T18:27:14;20.90;99.90
18073;DHT22;9161;47.348;9.648;2023-06-22T18:32:17;20.80;99.90
18073;DHT22;9161;47.348;9.648;2023-06-22T18:37:20;20.70;99.90
18073;DHT22;9161;47.348;9.648;2023-06-22T18:42:25;20.80;99.90
18073;DHT22;9161;47.348;9.648;2023-06-22T18:47:31;20.70;99.90
18073;DHT22;9161;47.348;9.648;2023-06-22T18:52:35;20.60;99.90
18073;DHT22;9161;47.348;9.648;2023-06-22T18:57:40;20.60;99.90
18073;DHT22;9161;47.348;9.648;2023-06-22T19:02:43;20.60;99.90
18073;DHT22;9161;47.348;9.648;2023-06-22T19:07:58;20.70;99.90
18073;DHT22;9161;47.348;9.648;2023-06-22T19:13:26;20.70;99.90
18073;DHT22;9161;47.348;9.648;2023-06-22T19:18:32;20.60;99.90
18073;DHT22;9161;47.348;9.648;2023-06-22T19:23:37;20.60;99.90
18073;DHT22;9161;47.348;9.648;2023-06-22T19:28:47;20.60;99.90
18073;DHT22;9161;47.348;9.648;2023-06-22T19:33:53;20.70;99.90
18073;DHT22;9161;47.348;9.648;2023-06-22T19:38:58;20.30;99.90
18073;DHT22;9161;47.348;9.648;2023-06-22T19:44:02;20.30;99.90
18073;DHT22;9161;47.348;9.648;2023-06-22T19:49:06;20.20;99.90
18073;DHT22;9161;47.348;9.648;2023-06-22T19:54:11;20.30;99.90
18073;DHT22;9161;47.348;9.648;2023-06-22T19:59:22;20.10;99.90
18073;DHT22;9161;47.348;9.648;2023-06-22T20:04:27;20.00;99.90
18073;DHT22;9161;47.348;9.648;2023-06-22T20:09:31;20.00;99.90
18073;DHT22;9161;47.348;9.648;2023-06-22T20:14:36;20.20;99.90
18073;DHT22;9161;47.348;9.648;2023-06-22T20:19:39;20.10;99.90
18073;DHT22;9161;47.348;9.648;2023-06-22T20:24:42;20.30;99.90
18073;DHT22;9161;47.348;9.648;2023-06-22T20:29:45;20.20;99.90
18073;DHT22;9161;47.348;9.648;2023-06-22T20:34:48;20.20;99.90
18073;DHT22;9161;47.348;9.648;2023-06-22T20:39:50;20.20;99.90
18073;DHT22;9161;47.348;9.648;2023-06-22T20:44:54;20.30;99.90
18073;DHT22;9161;47.348;9.648;2023-06-22T20:49:56;20.50;99.90
18073;DHT22;9161;47.348;9.648;2023-06-22T20:55:00;20.50;99.90
18073;DHT22;9161;47.348;9.648;2023-06-22T21:00:05;20.50;99.90
18073;DHT22;9161;47.348;9.648;2023-06-22T21:05:08;20.40;99.90
18073;DHT22;9161;47.348;9.648;2023-06-22T21:10:11;20.40;99.90
18073;DHT22;9161;47.348;9.648;2023-06-22T21:15:16;20.70;99.90
18073;DHT22;9161;47.348;9.648;2023-06-22T21:20:18;20.90;99.90
18073;DHT22;9161;47.348;9.648;2023-06-22T21:25:20;21.10;99.90
18073;DHT22;9161;47.348;9.648;2023-06-22T21:30:24;21.30;99.90
18073;DHT22;9161;47.348;9.648;2023-06-22T21:35:27;21.50;99.90
18073;DHT22;9161;47.348;9.648;2023-06-22T21:40:30;21.40;99.90
18073;DHT22;9161;47.348;9.648;2023-06-22T21:45:33;21.20;99.90
18073;DHT22;9161;47.348;9.648;2023-06-22T21:50:36;21.10;99.90
18073;DHT22;9161;47.348;9.648;2023-06-22T21:55:38;20.90;99.90
18073;DHT22;9161;47.348;9.648;2023-06-22T22:00:41;20.80;99.90
18073;DHT22;9161;47.348;9.648;2023-06-22T22:05:43;20.70;99.90
18073;DHT22;9161;47.348;9.648;2023-06-22T22:10:46;20.80;99.90
18073;DHT22;9161;47.348;9.648;2023-06-22T22:15:50;21.10;99.90
18073;DHT22;9161;47.348;9.648;2023-06-22T22:20:53;21.10;99.90
18073;DHT22;9161;47.348;9.648;2023-06-22T22:25:55;21.00;99.90
18073;DHT22;9161;47.348;9.648;2023-06-22T22:30:59;21.00;99.90
18073;DHT22;9161;47.348;9.648;2023-06-22T22:36:01;21.00;99.90
18073;DHT22;9161;47.348;9.648;2023-06-22T22:41:05;20.90;99.90
18073;DHT22;9161;47.348;9.648;2023-06-22T22:46:09;20.80;99.90
18073;DHT22;9161;47.348;9.648;2023-06-22T22:51:11;20.70;99.90
18073;DHT22;9161;47.348;9.648;2023-06-22T22:56:13;20.70;99.90
18073;DHT22;9161;47.348;9.648;2023-06-22T23:01:17;20.60;99.90
18073;DHT22;9161;47.348;9.648;2023-06-22T23:06:19;20.60;99.90
18073;DHT22;9161;47.348;9.648;2023-06-22T23:11:21;20.50;99.90
18073;DHT22;9161;47.348;9.648;2023-06-22T23:16:26;20.50;99.90
18073;DHT22;9161;47.348;9.648;2023-06-22T23:21:29;20.50;99.90
18073;DHT22;9161;47.348;9.648;2023-06-22T23:26:31;20.40;99.90
18073;DHT22;9161;47.348;9.648;2023-06-22T23:31:34;20.30;99.90
18073;DHT22;9161;47.348;9.648;2023-06-22T23:36:37;20.30;99.90
18073;DHT22;9161;47.348;9.648;2023-06-22T23:41:39;20.20;99.90
18073;DHT22;9161;47.348;9.648;2023-06-22T23:46:42;20.20;99.90
18073;DHT22;9161;47.348;9.648;2023-06-22T23:51:44;19.90;99.90
18073;DHT22;9161;47.348;9.648;2023-06-22T23:56:50;19.70;99.90
